Flight Track Log - Related Links

Times and Time Zones

All times are in EDT time to prevent confusion due to time zone crossing. See the AWE1693 flight status page for this flight to view local times or setup timezone preferences in your user account.

Time Position Orientation Groundspeed Altitude Reporting Facility
EDT Latitude Longitude Course Direction KTS MPH feet Rate Location/Type
Sat 08:43:50 42.7694 -73.8089 122° Southeast 155 178 1,400  Level Boston Center
Sat 08:44:14 42.7881 -73.8178 341° North 186 214 2,000 1,694 Climbing Boston Center
Sat 08:45:15 42.8353 -73.8783 317° Northwest 257 296 3,800 2,316 Climbing Boston Center
Sat 08:46:00 42.5046 -74.0675 171° South  Level Estimated
Sat 08:46:08 42.8844 -73.9447 315° West 271 312 6,400  Level Boston Center
Sat 08:47:00 42.4230 -74.1555 170° South  Level Estimated
Sat 08:47:08 42.9042 -74.0331 287° West 273 314 9,100  Level Boston Center
Sat 08:48:00 42.3670 -74.0363 122° Southeast  Level FlightAware Approximate
Sat 08:48:08 42.9083 -74.1581 273° West 299 344 11,800  Level Boston Center
Sat 08:49:08 42.8411 -74.2042 207° Southwest 269 310 12,700 1,550 Climbing Boston Center
Sat 08:50:08 42.7397 -74.1475 158° South 302 348 14,900 2,050 Climbing Boston Center
Sat 08:51:08 42.6531 -74.0944 156° South 372 428 16,800 1,750 Climbing Boston Center
Sat 08:52:08 42.5436 -74.0322 157° South 395 455 18,400 1,600 Climbing Boston Center
Sat 08:53:08 42.4358 -73.9761 159° South 395 455 20,000 1,500 Climbing Boston Center
Sat 08:54:08 42.3261 -73.9144 157° South 411 473 21,400 1,450 Climbing Boston Center
Sat 08:55:08 42.2125 -73.8500 157° South 425 489 22,900 1,400 Climbing Boston Center
Sat 08:56:08 42.0944 -73.7858 158° South 441 507 24,200 1,250 Climbing Boston Center
Sat 08:57:08 41.9764 -73.7192 157° South 454 522 25,400 1,250 Climbing Boston Center
Sat 08:58:08 41.8561 -73.6525 158° South 454 522 26,700 1,200 Climbing Boston Center
Sat 08:59:08 41.7297 -73.6028 164° South 464 534 27,800 1,050 Climbing Boston Center
Sat 09:00:08 41.5922 -73.5975 178° South 481 554 28,800 950 Climbing Boston Center
Sat 09:01:08 41.4733 -73.5897 177° South 481 554 29,700 1,048 Climbing Boston Center
Sat 09:02:54 41.2344 -73.6708 194° South 460 529 31,700 1,222 Climbing New York Center
Sat 09:03:55 41.1497 -73.8050 230° Southwest 460 529 33,100 1,664 Climbing New York Center
Sat 09:04:53 41.0714 -73.9361 232° Southwest 455 524 35,000 1,017 Climbing New York Center
Sat 09:05:53 40.9925 -74.0700 232° Southwest 455 524 35,100 250 Climbing New York Center
Sat 09:06:53 40.9183 -74.1900 231° Southwest 468 539 35,500 450 Climbing New York Center
Sat 09:07:53 40.8353 -74.3228 230° Southwest 473 544 36,000 248 Climbing New York Center
Sat 09:08:54 40.7542 -74.4583 232° Southwest 473 544 36,000  Level New York Center
Sat 09:09:54 40.6747 -74.5908 232° Southwest 473 544 36,000  Level New York Center
Sat 09:10:55 40.5933 -74.7231 231° Southwest 473 544 36,000 -50 Level New York Center
Sat 09:11:53 40.5100 -74.8464 228° Southwest 473 544 35,900 -51 Descending New York Center
Sat 09:12:53 40.4222 -74.9694 227° Southwest 468 539 35,900  Level New York Center
Sat 09:13:54 40.3344 -75.0947 227° Southwest 468 539 35,900 49 Level New York Center
Sat 09:14:55 40.2486 -75.2172 227° Southwest 468 539 36,000 50 Climbing New York Center
Sat 09:15:55 40.1606 -75.3419 227° Southwest 468 539 36,000  Level New York Center
Sat 09:16:53 40.0725 -75.4608 226° Southwest 468 539 36,000  Level New York Center
Sat 09:17:54 39.9753 -75.5953 227° Southwest 473 544 36,000  Level New York Center
Sat 09:18:55 39.8908 -75.7194 228° Southwest 473 544 36,000  Level New York Center
Sat 09:20:26 39.7758 -75.8992 230° Southwest 466 536 36,000  Level Washington Center
Sat 09:21:27 39.6942 -76.0256 230° Southwest 466 536 36,000  Level Washington Center
Sat 09:22:27 39.6164 -76.1544 232° Southwest 459 528 36,000  Level Washington Center
Sat 09:23:27 39.5386 -76.2778 231° Southwest 459 528 36,000 -51 Level Washington Center
Sat 09:24:25 39.4589 -76.3978 229° Southwest 453 521 35,900  Descending Washington Center
Sat 09:25:26 39.3683 -76.5311 229° Southwest 453 521 36,000 49 Climbing Washington Center
Sat 09:26:27 39.2922 -76.6536 231° Southwest 453 521 36,000  Level Washington Center
Sat 09:27:25 39.2139 -76.7731 230° Southwest 453 521 36,000  Level Washington Center
Sat 09:28:25 39.1356 -76.8947 230° Southwest 453 521 36,000  Level Washington Center
Sat 09:29:27 39.0572 -77.0164 230° Southwest 448 516 36,000  Level Washington Center
Sat 09:30:27 38.9661 -77.1214 222° Southwest 448 516 36,000  Level Washington Center
Sat 09:31:25 38.8711 -77.2261 221° Southwest 448 516 36,000  Level Washington Center
Sat 09:32:26 38.7758 -77.3306 221° Southwest 453 521 36,000  Level Washington Center
Sat 09:33:26 38.6931 -77.4189 220° Southwest 453 521 36,000  Level Washington Center
Sat 09:34:24 38.5978 -77.5228 220° Southwest 448 516 36,000  Level Washington Center
Sat 09:35:25 38.5064 -77.6239 221° Southwest 448 516 36,000  Level Washington Center
Sat 09:36:26 38.4128 -77.7275 221° Southwest 443 510 36,000  Level Washington Center
Sat 09:37:27 38.3214 -77.8281 221° Southwest 443 510 36,000  Level Washington Center
Sat 09:38:25 38.2256 -77.9283 219° Southwest 443 510 36,000  Level Washington Center
Sat 09:39:26 38.1339 -78.0283 221° Southwest 443 510 36,000  Level Washington Center
Sat 09:40:26 38.0422 -78.1256 220° Southwest 438 504 36,000  Level Washington Center
Sat 09:41:27 37.9542 -78.2439 227° Southwest 432 497 36,000  Level Washington Center
Sat 09:42:27 37.8831 -78.3492 229° Southwest 433 498 36,000  Level Washington Center
Sat 09:43:25 37.8011 -78.4644 228° Southwest 433 498 36,000  Level Washington Center
Sat 09:44:25 37.7211 -78.5794 229° Southwest 438 504 36,000  Level Washington Center
Sat 09:45:26 37.6389 -78.6942 228° Southwest 438 504 36,000  Level Washington Center
Sat 09:46:27 37.5500 -78.8217 229° Southwest 443 510 36,000  Level Washington Center
Sat 09:47:27 37.4678 -78.9333 227° Southwest 448 516 36,000 -254 Level Washington Center
Sat 09:48:25 37.3872 -79.0475 228° Southwest 448 516 35,500 -756 Descending Washington Center
Sat 09:49:26 37.3089 -79.1561 228° Southwest 442 509 34,500 -843 Descending Washington Center
Sat 09:50:26 37.2244 -79.2592 224° Southwest 432 497 33,800 -744 Descending Washington Center
Sat 09:51:27 37.1236 -79.3456 214° Southwest 432 497 33,000 -454 Descending Washington Center
Sat 09:52:25 37.0294 -79.4217 213° Southwest 444 511 32,900 -101 Descending Washington Center
Sat 09:53:26 36.9289 -79.5050 214° Southwest 444 511 32,800 -541 Descending Washington Center
Sat 09:54:27 36.8281 -79.5881 213° Southwest 444 511 31,800 -1,006 Descending Washington Center
Sat 09:56:13 36.6400 -79.7389 213° Southwest 446 513 30,000 -1,699 Descending Atlanta Center
Sat 09:57:13 36.5283 -79.8303 213° Southwest 446 513 27,100 -2,700 Descending Atlanta Center
Sat 09:58:13 36.4269 -79.9128 213° Southwest 446 513 24,600 -2,400 Descending Atlanta Center
Sat 09:59:13 36.3294 -79.9900 213° Southwest 441 507 22,300 -1,300 Descending Atlanta Center
Sat 10:00:13 36.2361 -80.0694 214° Southwest 428 493 22,000 -1,000 Descending Atlanta Center
Sat 10:01:13 36.1528 -80.1403 214° Southwest 415 478 20,300 -1,900 Descending Atlanta Center
Sat 10:02:13 36.0633 -80.2167 215° Southwest 404 465 18,200 -2,000 Descending Atlanta Center
Sat 10:03:13 35.9761 -80.2925 215° Southwest 404 465 16,300 -2,106 Descending Atlanta Center
Sat 10:03:47 35.9214 -80.3464 219° Southwest 379 436 14,900 -2,400 Descending Atlanta Center
Sat 10:04:13 35.8828 -80.3764 212° Southwest 390 449 13,900 -1,326 Descending Atlanta Center
Sat 10:05:13 35.8033 -80.4414 214° Southwest 374 430 13,000 -882 Descending Atlanta Center
Sat 10:05:55 35.7564 -80.4844 217° Southwest 292 336 12,400 -1,100 Descending Atlanta Center
Sat 10:06:13 35.7339 -80.4981 206° Southwest 321 369 11,900 -1,574 Descending Atlanta Center
Sat 10:06:56 35.6850 -80.5386 214° Southwest 286 329 10,800 -1,300 Descending Atlanta Center
Sat 10:07:13 35.6750 -80.5492 221° Southwest 301 346 10,600 -774 Descending Atlanta Center
Sat 10:07:58 35.6219 -80.5950 215° Southwest 286 329 10,000 -600 Descending Atlanta Center
Sat 10:08:13 35.6097 -80.6056 215° Southwest 292 336 10,000  Level Atlanta Center
Sat 10:08:59 35.5506 -80.6542 214° Southwest 286 329 10,000  Level Atlanta Center
Sat 10:10:00 35.4853 -80.7103 215° Southwest 285 328 10,000  Level Atlanta Center
Sat 10:11:01 35.4200 -80.7639 214° Southwest 284 327 10,000  Level Atlanta Center
Sat 10:12:02 35.3525 -80.8175 213° Southwest 283 326 10,000 -136 Level Atlanta Center
Sat 10:13:13 35.2656 -80.8386 191° South 270 311 9,700 -787 Descending Atlanta Center
Sat 10:14:04 35.2008 -80.8336 176° South 263 303 8,400 -1,554 Descending Atlanta Center
Sat 10:15:05 35.1297 -80.8261 175° South 257 296 6,800 -1,610 Descending Atlanta Center
Sat 10:16:07 35.0564 -80.8189 175° South 253 291 5,100 -1,366 Descending Atlanta Center
Sat 10:17:08 34.9853 -80.8167 179° South 255 293 4,000 -541 Descending Atlanta Center
Sat 10:18:09 34.9122 -80.8092 175° South 262 302 4,000 49 Level Atlanta Center
Sat 10:19:10 34.8628 -80.8392 206° Southwest 223 257 4,100  Climbing Atlanta Center
Sat 10:20:11 34.8853 -80.9042 293° West 200 230 4,000 -49 Descending Atlanta Center
Sat 10:21:12 34.9356 -80.9122 353° North 182 209 4,000  Level Atlanta Center
Sat 10:22:13 34.9881 -80.9178 355° North 184 212 4,000 -49 Level Atlanta Center
Sat 10:23:14 35.0403 -80.9236 355° North 186 214 3,900 -98 Descending Atlanta Center

Login

Don't have an account? Register now (free) for customized features, flight alerts, and more!